Viking Sun — LAYT7 — position and weather

sailwx.info

Track history (hours):
 
Tides and Currents Weather Stations Pressure Air Temp Water Temp Dewpoint Dewpoint Depression Visibility Wind Speed Wind Dir Waves Ship Positions

Viking Sun

Last reported at 2020-Jan-05 23:28 UTC. Time now 2020-Jan-19 16:20 UTC.
Position N 29°43' W 121°45'.
Warning: this ship's position is 13 days out of date.

Length 228 m; draft 6.7 m.

Type: Passenger vessel. MMSI: 257179000.

Date/timePositionNaut miles runAvg speedWind from/ knotsBaromVisibWave heightAir tempDewpointWater temp
2020-Jan-05 23:28N 29°43' W 121°45'13616.1
2020-Jan-05 15:00N 31°21' W 119°55'3416.8
2020-Jan-05 12:58N 31°45' W 119°27'1617.0
2020-Jan-05 12:01N 31°56' W 119°13'2516.8
2020-Jan-05 10:31N 32°14' W 118°52'1716.6
2020-Jan-05 09:30N 32°26' W 118°38'816.6
2020-Jan-05 09:00N 32°32' W 118°31'816.6
2020-Jan-05 08:30N 32°38' W 118°24'1615.8
2020-Jan-05 07:30N 32°51' W 118°14'816.6
2020-Jan-05 07:00N 32°59' W 118°12'1616.4
2020-Jan-05 06:00N 33°15' W 118°07'612.7
2020-Jan-05 05:31N 33°21' W 118°07'25 3.5
2020-Jan-04 22:29N 33°45' W 118°17'0 0.0
2020-Jan-04 20:59N 33°45' W 118°17'0 0.0
2020-Jan-04 20:29N 33°45' W 118°17'0 0.0
2020-Jan-04 19:29N 33°45' W 118°17'0 0.0
2020-Jan-04 16:59N 33°45' W 118°17'0 0.0
2020-Jan-04 15:59N 33°45' W 118°17'0 0.0
2020-Jan-04 15:29N 33°45' W 118°17'0 0.0
2020-Jan-04 14:59N 33°45' W 118°17'0 0.0
2020-Jan-04 13:59N 33°45' W 118°17'0 0.0
2020-Jan-04 09:59N 33°45' W 118°17'0 0.0
2020-Jan-04 08:29N 33°45' W 118°17'0 0.0
2020-Jan-04 07:59N 33°45' W 118°17'0 0.0
2020-Jan-04 06:59N 33°45' W 118°17'0 0.0
2020-Jan-04 06:29N 33°45' W 118°17'0 0.0
2020-Jan-04 04:59N 33°45' W 118°17'0 0.0
2020-Jan-04 04:29N 33°45' W 118°17'0 0.0
2020-Jan-04 03:00N 33°45' W 118°17'0 0.0
2020-Jan-03 20:58N 33°45' W 118°17'0 0.0
2020-Jan-03 18:58N 33°45' W 118°17'14 2.5
2020-Jan-03 13:31N 33°33' W 118°08'1010.4
2020-Jan-03 12:31N 33°23' W 118°04'611.6
2020-Jan-03 12:00N 33°18' W 118°01'2214.4
2020-Jan-03 10:31N 33°02' W 117°44'2113.7
2020-Jan-03 09:00N 32°46' W 117°28'13 8.8
2020-Jan-03 07:30N 32°40' W 117°14'4 7.2
2020-Jan-03 07:00N 32°43' W 117°11'1 0.3
2020-Jan-03 05:28N 32°43' W 117°10'0 0.0
2020-Jan-03 03:58N 32°43' W 117°10'0 0.0
2020-Jan-03 02:28N 32°43' W 117°10'0 0.0
2020-Jan-02 23:58N 32°43' W 117°10'0 0.0
2020-Jan-02 21:28N 32°43' W 117°10'0 0.0
2020-Jan-02 20:58N 32°43' W 117°10'0 0.0
2020-Jan-02 19:58N 32°43' W 117°10'0 0.0
2020-Jan-02 15:58N 32°43' W 117°10'0 0.0
2020-Jan-02 14:30N 32°43' W 117°10'3 6.1
2020-Jan-02 14:00N 32°42' W 117°14'33 9.5
2020-Jan-02 10:30N 32°09' W 117°16'3312.6
2020-Jan-02 07:50N 31°36' W 117°05'712.0
2020-Jan-02 07:17N 31°30' W 117°03'  
Track history (hours):
 
Tides and Currents Weather Stations Pressure Air Temp Water Temp Dewpoint Dewpoint Depression Visibility Wind Speed Wind Dir Waves Ship Positions

Viking Sun

Last reported at 2020-Jan-05 23:28 UTC. Time now 2020-Jan-19 16:20 UTC.
Position N 29°43' W 121°45'.
Warning: this ship's position is 13 days out of date.

Length 228 m; draft 6.7 m.

Type: Passenger vessel. MMSI: 257179000.

Date/timePositionNaut miles runAvg speedWind from/ knotsBaromVisibWave heightAir tempDewpointWater temp
2020-Jan-05 23:28N 29°43' W 121°45'13616.1
2020-Jan-05 15:00N 31°21' W 119°55'3416.8
2020-Jan-05 12:58N 31°45' W 119°27'1617.0
2020-Jan-05 12:01N 31°56' W 119°13'2516.8
2020-Jan-05 10:31N 32°14' W 118°52'1716.6
2020-Jan-05 09:30N 32°26' W 118°38'816.6
2020-Jan-05 09:00N 32°32' W 118°31'816.6
2020-Jan-05 08:30N 32°38' W 118°24'1615.8
2020-Jan-05 07:30N 32°51' W 118°14'816.6
2020-Jan-05 07:00N 32°59' W 118°12'1616.4
2020-Jan-05 06:00N 33°15' W 118°07'612.7
2020-Jan-05 05:31N 33°21' W 118°07'25 3.5
2020-Jan-04 22:29N 33°45' W 118°17'0 0.0
2020-Jan-04 20:59N 33°45' W 118°17'0 0.0
2020-Jan-04 20:29N 33°45' W 118°17'0 0.0
2020-Jan-04 19:29N 33°45' W 118°17'0 0.0
2020-Jan-04 16:59N 33°45' W 118°17'0 0.0
2020-Jan-04 15:59N 33°45' W 118°17'0 0.0
2020-Jan-04 15:29N 33°45' W 118°17'0 0.0
2020-Jan-04 14:59N 33°45' W 118°17'0 0.0
2020-Jan-04 13:59N 33°45' W 118°17'0 0.0
2020-Jan-04 09:59N 33°45' W 118°17'0 0.0
2020-Jan-04 08:29N 33°45' W 118°17'0 0.0
2020-Jan-04 07:59N 33°45' W 118°17'0 0.0
2020-Jan-04 06:59N 33°45' W 118°17'0 0.0
2020-Jan-04 06:29N 33°45' W 118°17'0 0.0
2020-Jan-04 04:59N 33°45' W 118°17'0 0.0
2020-Jan-04 04:29N 33°45' W 118°17'0 0.0
2020-Jan-04 03:00N 33°45' W 118°17'0 0.0
2020-Jan-03 20:58N 33°45' W 118°17'0 0.0
2020-Jan-03 18:58N 33°45' W 118°17'14 2.5
2020-Jan-03 13:31N 33°33' W 118°08'1010.4
2020-Jan-03 12:31N 33°23' W 118°04'611.6
2020-Jan-03 12:00N 33°18' W 118°01'2214.4
2020-Jan-03 10:31N 33°02' W 117°44'2113.7
2020-Jan-03 09:00N 32°46' W 117°28'13 8.8
2020-Jan-03 07:30N 32°40' W 117°14'4 7.2
2020-Jan-03 07:00N 32°43' W 117°11'1 0.3
2020-Jan-03 05:28N 32°43' W 117°10'0 0.0
2020-Jan-03 03:58N 32°43' W 117°10'0 0.0
2020-Jan-03 02:28N 32°43' W 117°10'0 0.0
2020-Jan-02 23:58N 32°43' W 117°10'0 0.0
2020-Jan-02 21:28N 32°43' W 117°10'0 0.0
2020-Jan-02 20:58N 32°43' W 117°10'0 0.0
2020-Jan-02 19:58N 32°43' W 117°10'0 0.0
2020-Jan-02 15:58N 32°43' W 117°10'0 0.0
2020-Jan-02 14:30N 32°43' W 117°10'3 6.1
2020-Jan-02 14:00N 32°42' W 117°14'33 9.5
2020-Jan-02 10:30N 32°09' W 117°16'3312.6
2020-Jan-02 07:50N 31°36' W 117°05'712.0
2020-Jan-02 07:17N 31°30' W 117°03'  

Dump ship's entire track history